Latest Weather Observations for Truscott

IDW60801

Issued at 12:05 pm WST Monday 28 July 2014 (issued every 30 minutes, with the page automatically refreshed every 10 minutes)

About weather observations | Map of weather stations | Latest weather observations for WA | Other Formats
Station Details ID: 001020 Name: TRUSCOTT Lat: -14.09 Lon: 126.39 Height: 51.0 m
Data from the previous 72 hours. | See also: Recent months at Truscott
Date/Time
WST
Temp
°C
App
Temp
°C
Dew
Point
Rel
Hum
%
Delta-T
°C
Wind Press
QNH
hPa
Press
MSL
hPa
Rain
since 9 am
mm
Dir
 
Spd
km/h
Gust
km/h
Spd
kts
Gust
kts
28/12:00pm 29.6 28.0 13.8 38 9.5 E 15 20 8 11 1015.0 1014.8 0.0
28/11:30am 30.0 28.8 14.0 37 9.6 ENE 13 13 7 7 1015.0 - 0.0
28/11:00am 29.0 27.9 13.0 37 9.5 E 11 - 6 - 1015.0 - 0.0
28/10:30am 28.0 26.1 13.0 39 8.8 ENE 15 - 8 - 1016.0 - 0.0
28/10:00am 28.0 27.2 13.0 39 8.8 E 9 - 5 - 1016.0 - 0.0
28/09:30am 29.0 29.7 16.0 45 8.1 E 7 - 4 - 1017.0 - 0.0
28/09:00am 26.8 28.9 18.9 62 5.1 NNE 6 - 3 - 1017.0 1017.0 0.0
28/08:30am 25.0 29.2 21.0 78 2.6 CALM 0 - 0 - 1017.0 - 0.0
28/08:00am 23.0 27.2 21.0 88 1.3 CALM 0 - 0 - 1017.0 - 0.0
28/07:30am 23.0 26.3 20.0 83 1.9 SW 2 - 1 - 1016.0 - 0.0
28/07:00am 23.0 25.9 21.0 88 1.3 S 7 - 4 - 1016.0 - 0.0
28/06:30am 22.0 24.5 21.0 94 0.7 SSW 9 - 5 - 1016.0 - 0.0
28/06:00am 21.4 24.0 20.4 94 0.6 SW 7 - 4 - 1015.0 1015.4 0.0
28/05:30am 22.0 24.6 20.0 88 1.3 WSW 6 - 3 - 1015.0 - 0.0
28/05:00am 21.0 23.4 20.0 94 0.6 W 7 - 4 - 1015.0 - 0.0
28/04:30am 20.0 23.3 20.0 100 0.0 SSW 2 - 1 - 1014.0 - 0.0
28/04:00am 20.0 23.7 20.0 100 0.0 CALM 0 - 0 - 1014.0 - 0.0
28/03:30am 21.0 23.4 20.0 94 0.6 SSW 7 - 4 - 1014.0 - 0.0
28/03:00am 21.3 23.7 20.1 93 0.8 SW 7 - 4 - 1014.0 1013.9 0.0
28/02:30am 22.0 24.0 20.0 88 1.3 SW 9 - 5 - 1014.0 - 0.0
28/02:00am 22.0 24.9 21.0 94 0.7 SSW 7 - 4 - 1014.0 - 0.0
28/01:30am 21.0 24.1 21.0 100 0.0 SSW 6 - 3 - 1014.0 - 0.0
28/01:00am 22.0 24.1 21.0 94 0.7 SSW 11 - 6 - 1014.0 - 0.0
28/12:30am 22.0 25.1 21.0 94 0.7 SSW 6 - 3 - 1015.0 - 0.0
28/12:00am 21.7 24.9 21.7 100 0.0 SSW 7 - 4 - 1015.0 1015.1 0.0
 
Date/Time
WST
Temp
°C
App
Temp
°C
Dew
Point
Rel
Hum
%
Delta-T
°C
Wind Press
QNH
hPa
Press
MSL
hPa
Rain
since 9 am
mm
Dir
 
Spd
km/h
Gust
km/h
Spd
kts
Gust
kts
27/11:30pm 21.0 25.2 21.0 100 0.0 CALM 0 - 0 - 1015.0 - 0.0
27/11:00pm 21.0 24.4 21.0 100 0.0 SW 4 - 2 - 1015.0 - 0.0
27/10:30pm 21.0 24.0 20.0 94 0.6 NNE 4 - 2 - 1016.0 - 0.0
27/10:00pm 21.0 25.2 21.0 100 0.0 CALM 0 - 0 - 1016.0 - 0.0
27/09:30pm 21.0 24.7 20.0 94 0.6 CALM 0 - 0 - 1016.0 - 0.0
27/09:00pm 21.3 25.2 20.3 94 0.6 CALM 0 - 0 - 1016.0 1016.3 0.0
27/08:30pm 22.0 26.2 21.0 94 0.7 CALM 0 - 0 - 1016.0 - 0.0
27/08:00pm 23.0 27.2 21.0 88 1.3 CALM 0 - 0 - 1016.0 - 0.0
27/07:30pm 23.0 27.2 21.0 88 1.3 CALM 0 - 0 - 1016.0 - 0.0
27/07:00pm 24.0 27.4 21.0 83 2.0 N 4 - 2 - 1015.0 - 0.0
27/06:30pm 24.0 27.6 22.0 88 1.3 N 6 - 3 - 1015.0 - 0.0
27/06:00pm 24.5 28.1 21.2 82 2.2 N 4 - 2 - 1015.0 1015.0 0.0
27/05:30pm 25.0 27.5 21.0 78 2.6 N 9 - 5 - 1014.0 - 0.0
27/05:00pm 26.0 28.5 21.0 74 3.3 N 9 - 5 - 1014.0 - 0.0
27/04:30pm 27.0 28.2 20.0 65 4.6 N 13 - 7 - 1014.0 - 0.0
27/04:00pm 28.0 29.2 20.0 61 5.2 NNE 13 - 7 - 1014.0 - 0.0
27/03:30pm 28.0 28.4 19.0 58 5.8 N 15 - 8 - 1013.0 - 0.0
27/03:00pm 28.8 28.9 18.3 53 6.7 NNE 15 - 8 - 1013.0 1013.2 0.0
27/02:30pm 29.0 28.0 18.0 51 7.0 NNE 20 - 11 - 1013.0 - 0.0
27/02:00pm 29.0 29.0 19.0 54 6.5 NNE 17 - 9 - 1013.0 - 0.0
27/01:30pm 30.0 30.0 19.0 51 7.1 NNE 17 - 9 - 1014.0 - 0.0
27/01:00pm 30.0 28.8 17.0 45 8.2 ENE 19 - 10 - 1014.0 - 0.0
27/12:30pm 30.0 28.8 17.0 45 8.2 NE 19 - 10 - 1014.0 - 0.0
27/12:00pm 30.2 29.0 16.2 42 8.7 NE 17 - 9 - 1015.0 1015.1 0.0
27/11:30am 30.0 28.4 15.0 40 9.2 ENE 17 - 9 - 1016.0 - 0.0
27/11:00am 30.0 28.0 14.0 37 9.7 ENE 17 - 9 - 1016.0 - 0.0
27/10:30am 29.0 26.7 13.0 37 9.5 E 17 - 9 - 1016.0 - 0.0
27/10:00am 29.0 27.1 13.0 37 9.5 E 15 - 8 - 1017.0 - 0.0
27/09:30am 28.0 24.2 11.0 34 9.7 E 22 - 12 - 1017.0 - 0.0
27/09:00am 27.7 25.4 11.7 37 9.2 ESE 15 - 8 - 1017.0 1017.0 0.0
27/08:30am 27.0 25.2 12.0 39 8.7 ESE 13 - 7 - 1017.0 - 0.0
27/08:00am 26.0 25.6 14.0 47 7.1 SE 9 - 5 - 1017.0 - 0.0
27/07:30am 23.0 23.1 14.0 57 5.3 SE 6 - 3 - 1016.0 - 0.0
27/07:00am 22.0 22.9 16.0 68 3.6 S 6 - 3 - 1016.0 - 0.0
27/06:30am 20.0 22.0 16.0 78 2.4 CALM 0 - 0 - 1016.0 - 0.0
27/06:00am 20.6 20.8 14.7 69 3.5 S 7 - 4 - 1016.0 1015.7 0.0
27/05:30am 21.0 21.7 16.0 73 3.0 SSW 7 - 4 - 1015.0 - 0.0
27/05:00am 21.0 22.3 17.0 78 2.4 SSW 6 - 3 - 1015.0 - 0.0
27/04:30am 22.0 23.1 17.0 73 3.1 SW 7 - 4 - 1015.0 - 0.0
27/04:00am 22.0 23.5 18.0 78 2.5 SW 7 - 4 - 1015.0 - 0.0
27/03:30am 22.0 23.1 18.0 78 2.5 SW 9 - 5 - 1015.0 - 0.0
27/03:00am 22.1 23.2 18.1 78 2.5 SW 9 - 5 - 1015.0 1015.0 0.0
27/02:30am 22.0 22.7 18.0 78 2.5 SW 11 - 6 - 1015.0 - 0.0
27/02:00am 22.0 22.3 18.0 78 2.5 SW 13 - 7 - 1015.0 - 0.0
27/01:30am 23.0 22.9 17.0 69 3.7 SW 13 - 7 - 1016.0 - 0.0
27/01:00am 23.0 22.9 16.0 64 4.2 SSW 11 - 6 - 1016.0 - 0.0
27/12:30am 22.0 22.3 15.0 64 4.2 S 7 - 4 - 1016.0 - 0.0
27/12:00am 21.6 22.4 16.3 72 3.2 S 7 - 4 - 1016.0 1016.5 0.0
 
Date/Time
WST
Temp
°C
App
Temp
°C
Dew
Point
Rel
Hum
%
Delta-T
°C
Wind Press
QNH
hPa
Press
MSL
hPa
Rain
since 9 am
mm
Dir
 
Spd
km/h
Gust
km/h
Spd
kts
Gust
kts
26/11:30pm 22.0 23.1 17.0 73 3.1 S 7 - 4 - 1017.0 - 0.0
26/11:00pm 21.0 22.5 18.0 83 1.9 SSE 7 - 4 - 1017.0 - 0.0
26/10:30pm 22.0 23.1 18.0 78 2.5 S 9 - 5 - 1017.0 - 0.0
26/10:00pm 21.0 22.7 18.0 83 1.9 SE 6 - 3 - 1017.0 - 0.0
26/09:30pm 22.0 23.1 17.0 73 3.1 ESE 7 - 4 - 1017.0 - 0.0
26/09:00pm 21.5 22.2 16.0 71 3.3 E 7 - 4 - 1017.0 1017.0 0.0
26/08:30pm 23.0 23.7 16.0 64 4.2 ENE 7 - 4 - 1017.0 - 0.0
26/08:00pm 23.0 23.7 16.0 64 4.2 NE 7 - 4 - 1017.0 - 0.0
26/07:30pm 24.0 25.1 18.0 69 3.8 NE 9 - 5 - 1016.0 - 0.0
26/07:00pm 24.0 25.5 19.0 73 3.2 NNE 9 - 5 - 1016.0 - 0.0
26/06:30pm 25.0 26.2 19.0 69 3.8 NNE 11 - 6 - 1016.0 - 0.0
26/06:00pm 24.9 26.1 19.0 69 3.8 NNE 11 - 6 - 1015.0 1015.5 0.0
26/05:30pm 26.0 27.2 19.0 65 4.5 NNE 11 - 6 - 1015.0 - 0.0
26/05:00pm 26.0 26.3 18.0 61 5.1 NNE 13 - 7 - 1015.0 - 0.0
26/04:30pm 27.0 27.0 18.0 58 5.7 NNE 15 - 8 - 1015.0 - 0.0
26/04:00pm 28.0 27.6 18.0 54 6.4 N 17 - 9 - 1014.0 - 0.0
26/03:30pm 28.0 27.2 17.0 51 6.9 N 17 - 9 - 1014.0 - 0.0
26/03:00pm 28.7 28.9 17.6 51 7.0 NNE 13 - 7 - 1014.0 1014.2 0.0
26/02:30pm 29.0 28.5 17.0 48 7.5 N 15 - 8 - 1014.0 - 0.0
26/02:00pm 29.0 28.2 17.0 48 7.5 N 17 - 9 - 1014.0 - 0.0
26/01:30pm 30.0 29.2 13.0 35 10.1 ENE 9 - 5 - 1014.0 - 0.0
26/01:00pm 30.0 28.8 15.0 40 9.2 NNE 15 - 8 - 1015.0 - 0.0
26/12:30pm 29.0 26.5 14.0 39 9.0 NNE 20 - 11 - 1015.0 - 0.0
26/12:00pm 30.3 27.1 9.8 28 11.6 E 17 - 9 - 1016.0 1015.7 0.0
26/11:30am 30.0 26.8 10.0 29 11.3 E 17 - 9 - 1016.0 - 0.0
26/11:00am 29.0 26.1 11.0 32 10.3 E 17 - 9 - 1016.0 - 0.0
26/10:30am 29.0 26.5 11.0 32 10.3 E 15 - 8 - 1017.0 - 0.0
26/10:00am 29.0 27.2 12.0 35 9.9 E 13 - 7 - 1017.0 - 0.0
26/09:30am 28.0 26.2 11.0 34 9.7 ESE 11 - 6 - 1017.0 - 0.0
26/09:00am 27.0 26.6 13.0 42 8.2 ENE 7 - 4 - 1017.0 1017.3 0.0
26/08:30am 25.0 25.3 15.0 53 6.0 E 7 - 4 - 1017.0 - 0.0
26/08:00am 24.0 26.0 16.0 61 4.9 CALM 0 - 0 - 1017.0 - 0.0
26/07:30am 22.0 23.2 16.0 68 3.6 SW 4 - 2 - 1017.0 - 0.0
26/07:00am 21.0 21.7 17.0 78 2.4 SSW 9 - 5 - 1016.0 - 0.0
26/06:30am 20.0 20.7 17.0 83 1.8 SSW 9 - 5 - 1016.0 - 0.0
26/06:00am 19.8 19.9 16.6 82 1.9 SSW 11 - 6 - 1016.0 1015.7 0.0
26/05:30am 20.0 20.7 17.0 83 1.8 SSW 9 - 5 - 1016.0 - 0.0
26/05:00am 20.0 20.7 17.0 83 1.8 SSW 9 - 5 - 1015.0 - 0.0
26/04:30am 20.0 20.7 17.0 83 1.8 SSW 9 - 5 - 1015.0 - 0.0
26/04:00am 21.0 21.7 16.0 73 3.0 SW 7 - 4 - 1015.0 - 0.0
26/03:30am 21.0 21.3 17.0 78 2.4 SSW 11 - 6 - 1015.0 - 0.0
26/03:00am 19.5 21.0 18.0 91 0.9 S 7 - 4 - 1015.0 1015.6 0.0
26/02:30am 19.0 20.5 18.0 94 0.6 S 7 - 4 - 1016.0 - 0.0
26/02:00am 20.0 21.5 18.0 88 1.2 S 7 - 4 - 1016.0 - 0.0
26/01:30am 20.0 21.1 18.0 88 1.2 S 9 - 5 - 1016.0 - 0.0
26/01:00am 20.0 21.5 18.0 88 1.2 SSW 7 - 4 - 1016.0 - 0.0
26/12:30am 20.0 22.4 18.0 88 1.2 SSW 2 - 1 - 1016.0 - 0.0
26/12:00am 20.1 22.9 18.0 88 1.3 CALM 0 - 0 - 1016.0 1016.3 0.0
 
Date/Time
WST
Temp
°C
App
Temp
°C
Dew
Point
Rel
Hum
%
Delta-T
°C
Wind Press
QNH
hPa
Press
MSL
hPa
Rain
since 9 am
mm
Dir
 
Spd
km/h
Gust
km/h
Spd
kts
Gust
kts
25/11:30pm 20.0 22.8 18.0 88 1.2 CALM 0 - 0 - 1016.0 - 0.0
25/11:00pm 20.0 22.8 18.0 88 1.2 CALM 0 - 0 - 1016.0 - 0.0
25/10:30pm 21.0 23.8 18.0 83 1.9 CALM 0 - 0 - 1017.0 - 0.0
25/10:00pm 21.0 24.3 19.0 88 1.3 CALM 0 - 0 - 1017.0 - 0.0
25/09:30pm 21.0 23.1 19.0 88 1.3 SSE 6 - 3 - 1017.0 - 0.0
25/09:00pm 20.6 22.4 18.2 86 1.5 ESE 6 - 3 - 1017.0 1016.7 0.0
25/08:30pm 21.0 22.7 18.0 83 1.9 SSE 6 - 3 - 1017.0 - 0.0
25/08:00pm 21.0 22.7 18.0 83 1.9 NE 6 - 3 - 1016.0 - 0.0
25/07:30pm 21.0 22.3 17.0 78 2.4 N 6 - 3 - 1016.0 - 0.0
25/07:00pm 22.0 24.0 17.0 73 3.1 NNE 2 - 1 - 1016.0 - 0.0
25/06:30pm 23.0 24.3 17.0 69 3.7 NNE 6 - 3 - 1015.0 - 0.0
25/06:00pm 23.7 24.6 16.7 65 4.3 NNE 7 - 4 - 1015.0 1014.8 0.0
25/05:30pm 24.0 24.1 14.0 53 5.9 N 6 - 3 - 1014.0 - 0.0
25/05:00pm 26.0 24.5 12.0 41 8.0 N 11 - 6 - 1014.0 - 0.0
25/04:30pm 28.0 26.2 11.0 34 9.7 NNE 11 - 6 - 1013.0 - 0.0
25/04:00pm 29.0 26.7 9.0 28 11.1 N 11 - 6 - 1013.0 - 0.0
25/03:30pm 29.0 26.6 10.0 30 10.7 N 13 - 7 - 1013.0 - 0.0
25/03:00pm 29.0 27.0 10.2 31 10.6 NNW 11 - 6 - 1013.0 1013.0 0.0
25/02:30pm 29.0 27.2 12.0 35 9.9 NNW 13 - 7 - 1013.0 - 0.0
25/02:00pm 29.0 26.9 11.0 32 10.3 NNW 13 - 7 - 1013.0 - 0.0
25/01:30pm 29.0 27.9 13.0 37 9.5 N 11 - 6 - 1013.0 - 0.0
25/01:00pm 29.0 29.7 17.0 48 7.5 NNW 9 - 5 - 1014.0 - 0.0
25/12:30pm 29.0 29.3 18.0 51 7.0 N 13 - 7 - 1014.0 - 0.0

Other Formats:

Comma delimited format used in spreadsheet applications
http://www.bom.gov.au/fwo/IDW60801/IDW60801.95101.axf

JavaScript Object Notation format (JSON) in row-major order
http://www.bom.gov.au/fwo/IDW60801/IDW60801.95101.json